Terminal Aerodrome Forecast
Issued by NWS

Home | Current Version | Previous Version | Text Only | Print | Product List | Glossary On
Versions: 1 2 3 4 5 6 7 8 9 10 11 12 13 14 15 16 17 18 19 20 21 22 23 24
000
FTUS43 KTOP 241126
TAFMHK
TAF
KMHK 241126Z 2412/2512 10010KT P6SM SCT150 WS015/15045KT
     FM241400 12013KT P6SM BKN035
     FM241600 13014G23KT P6SM SCT050
     FM242000 19015G25KT P6SM SCT100
     FM250000 28014G23KT P6SM SCT140=

USA.gov is the U.S. government's official web portal to all federal, state and local government web resources and services.